Time;durP1;ratioP1;P1;durP2;ratioP2;P2;SDS_P1;SDS_P2;PMS_P1;PMS_P2;Temp;Humidity;BMP_temperature;BMP_pressure;BME280_temperature;BME280_humidity;BME280_pressure;Samples;Min_cycle;Max_cycle;Signal;HPM_P1;HPM_P2
2024/01/09 00:01:28;;;;;;;2.30;1.47;;;1.00;99.90;;;;;;4144434;28;20317;-60
2024/01/09 00:03:30;;;;;;;1.63;1.23;;;1.00;99.90;;;;;;4145712;28;20717;-59
2024/01/09 00:05:31;;;;;;;4.07;2.13;;;1.00;99.90;;;;;;4143912;28;20300;-60
2024/01/09 00:07:32;;;;;;;3.70;2.10;;;1.00;99.90;;;;;;4145577;28;20264;-60
2024/01/09 00:09:34;;;;;;;2.53;1.53;;;1.00;99.90;;;;;;4144672;28;20267;-59
2024/01/09 00:11:35;;;;;;;2.70;1.20;;;1.00;99.90;;;;;;4145378;28;20279;-60
2024/01/09 00:13:37;;;;;;;4.17;1.33;;;0.90;99.90;;;;;;4144193;28;20318;-62
2024/01/09 00:15:38;;;;;;;1.63;1.30;;;0.90;99.90;;;;;;4145307;28;20786;-60
2024/01/09 00:17:41;;;;;;;3.37;1.47;;;0.90;99.90;;;;;;4144856;28;20382;-60
2024/01/09 00:19:42;;;;;;;3.90;1.50;;;0.90;99.90;;;;;;4144374;28;20255;-60
2024/01/09 00:21:46;;;;;;;2.07;1.50;;;0.90;99.90;;;;;;4144956;28;20271;-60
2024/01/09 00:23:47;;;;;;;2.73;1.20;;;0.80;99.90;;;;;;4144292;28;20279;-60
2024/01/09 00:25:48;;;;;;;2.67;1.57;;;0.80;99.90;;;;;;4145124;28;20345;-60
2024/01/09 00:27:49;;;;;;;4.37;1.67;;;0.80;99.90;;;;;;4144191;28;20275;-61
2024/01/09 00:29:50;;;;;;;4.30;1.73;;;0.70;99.90;;;;;;4145892;28;20334;-59
2024/01/09 00:31:52;;;;;;;4.67;1.67;;;0.70;99.90;;;;;;4143980;28;20604;-60
2024/01/09 00:33:53;;;;;;;2.40;1.37;;;0.70;99.90;;;;;;4145322;28;20329;-61
2024/01/09 00:35:55;;;;;;;3.40;1.60;;;0.70;99.90;;;;;;4143578;28;20268;-59
2024/01/09 00:37:56;;;;;;;2.57;1.23;;;0.70;99.90;;;;;;4145103;28;20279;-61
2024/01/09 00:39:57;;;;;;;4.40;1.70;;;0.70;99.90;;;;;;4143988;28;20305;-59
2024/01/09 00:41:58;;;;;;;3.87;1.70;;;0.60;99.90;;;;;;4144926;28;20264;-59
2024/01/09 00:43:59;;;;;;;1.67;1.07;;;0.60;99.90;;;;;;4143980;28;20272;-60
2024/01/09 00:46:00;;;;;;;4.30;1.57;;;0.60;99.90;;;;;;4144787;28;20755;-59
2024/01/09 00:48:02;;;;;;;2.90;1.57;;;0.70;99.90;;;;;;4144019;28;20743;-60
2024/01/09 00:50:03;;;;;;;1.93;1.40;;;0.70;99.90;;;;;;4144282;28;20748;-60
2024/01/09 00:52:05;;;;;;;4.97;1.80;;;0.70;99.90;;;;;;4144495;28;20275;-59
2024/01/09 00:54:06;;;;;;;5.20;2.63;;;0.70;99.90;;;;;;4143876;28;20393;-60
2024/01/09 00:56:07;;;;;;;2.63;1.20;;;0.80;99.90;;;;;;4144512;28;20329;-60
2024/01/09 00:58:08;;;;;;;4.10;1.90;;;0.80;99.90;;;;;;4144193;28;20353;-60
2024/01/09 01:00:10;;;;;;;5.40;1.73;;;0.80;99.90;;;;;;4144957;28;20279;-58
2024/01/09 01:02:11;;;;;;;5.00;1.67;;;0.90;99.90;;;;;;4143895;28;20322;-60
2024/01/09 01:04:12;;;;;;;5.10;1.90;;;0.90;99.90;;;;;;4144780;28;20271;-60
2024/01/09 01:06:13;;;;;;;7.27;2.70;;;0.90;99.90;;;;;;4143529;28;20274;-56
2024/01/09 01:08:15;;;;;;;4.53;1.80;;;0.90;99.90;;;;;;4144817;28;20279;-60
2024/01/09 01:10:16;;;;;;;5.37;2.00;;;0.80;99.90;;;;;;4143734;28;20284;-59
2024/01/09 01:12:18;;;;;;;5.53;1.93;;;0.80;99.90;;;;;;4144386;28;20325;-60
2024/01/09 01:14:19;;;;;;;3.40;1.90;;;0.80;99.90;;;;;;4143615;28;20331;-60
2024/01/09 01:16:20;;;;;;;2.77;1.43;;;0.80;99.90;;;;;;4143012;28;20330;-60
2024/01/09 01:18:21;;;;;;;4.40;2.00;;;0.70;99.90;;;;;;4143676;28;20255;-60
2024/01/09 01:20:22;;;;;;;3.60;1.30;;;0.70;99.90;;;;;;4144217;28;20260;-59
2024/01/09 01:22:23;;;;;;;1.37;0.67;;;0.60;99.90;;;;;;4144321;28;20275;-60
2024/01/09 01:24:25;;;;;;;1.87;1.27;;;0.60;99.90;;;;;;4143640;28;20341;-61
2024/01/09 01:26:26;;;;;;;1.17;0.70;;;0.50;99.90;;;;;;4144386;28;20276;-59
2024/01/09 01:28:27;;;;;;;1.23;0.80;;;0.50;99.90;;;;;;4143771;28;20329;-57
2024/01/09 01:30:28;;;;;;;1.33;0.90;;;0.50;99.90;;;;;;4144543;28;20267;-60
2024/01/09 01:32:30;;;;;;;1.43;1.10;;;0.40;99.90;;;;;;4143321;28;20306;-64
2024/01/09 01:34:31;;;;;;;4.07;1.10;;;0.50;99.90;;;;;;4144610;28;20326;-65
2024/01/09 01:36:32;;;;;;;2.37;0.90;;;0.40;99.90;;;;;;4142977;28;20310;-62
2024/01/09 01:38:33;;;;;;;1.00;0.60;;;0.40;99.90;;;;;;4143390;28;20279;-66
2024/01/09 01:40:34;;;;;;;1.80;0.70;;;0.30;99.90;;;;;;4142388;28;20279;-60
2024/01/09 01:42:35;;;;;;;1.47;0.80;;;0.30;99.90;;;;;;4144303;28;20329;-64
2024/01/09 01:44:36;;;;;;;2.70;1.20;;;0.30;99.90;;;;;;4143199;28;20695;-64
2024/01/09 01:46:38;;;;;;;3.43;1.23;;;0.30;99.90;;;;;;4143210;28;20321;-64
2024/01/09 01:48:40;;;;;;;2.73;1.30;;;0.20;99.90;;;;;;4143250;28;20326;-64
2024/01/09 01:50:42;;;;;;;5.60;1.20;;;0.20;99.90;;;;;;4143626;28;20317;-66
2024/01/09 01:52:45;;;;;;;3.57;1.37;;;0.20;99.90;;;;;;4143746;28;20349;-63
2024/01/09 01:54:47;;;;;;;0.87;0.63;;;0.20;99.90;;;;;;4143331;28;20260;-61
2024/01/09 01:56:48;;;;;;;1.63;0.80;;;0.20;99.90;;;;;;4143982;28;20654;-62
2024/01/09 01:58:50;;;;;;;1.63;1.10;;;0.10;99.90;;;;;;4143871;28;20374;-63
2024/01/09 02:00:51;;;;;;;1.50;1.07;;;0.10;99.90;;;;;;4144191;28;20345;-63
2024/01/09 02:02:53;;;;;;;1.00;1.00;;;0.10;99.90;;;;;;4143079;28;21102;-64
2024/01/09 02:04:54;;;;;;;1.30;1.00;;;0.10;99.90;;;;;;4144511;28;20887;-64
2024/01/09 02:06:57;;;;;;;2.53;1.13;;;0.10;99.90;;;;;;4142611;28;20663;-65
2024/01/09 02:08:59;;;;;;;2.27;1.00;;;0.00;99.90;;;;;;4144338;28;20271;-61
2024/01/09 02:11:00;;;;;;;1.50;1.00;;;0.00;99.90;;;;;;4143160;28;20708;-61
2024/01/09 02:13:01;;;;;;;2.73;0.90;;;0.00;99.90;;;;;;4144071;28;20259;-59
2024/01/09 02:15:03;;;;;;;2.70;0.80;;;0.00;99.90;;;;;;4144724;28;20283;-62
2024/01/09 02:17:05;;;;;;;1.43;0.90;;;-0.10;99.90;;;;;;4146216;28;20325;-64
2024/01/09 02:19:06;;;;;;;2.43;1.10;;;-0.10;99.90;;;;;;4146452;28;20318;-61
2024/01/09 02:21:07;;;;;;;2.93;1.10;;;-0.10;99.90;;;;;;4146925;28;20283;-60
2024/01/09 02:23:08;;;;;;;1.33;1.10;;;-0.10;99.90;;;;;;4146545;28;20332;-61
2024/01/09 02:25:09;;;;;;;4.53;0.83;;;-0.10;99.90;;;;;;4146135;28;20295;-60
2024/01/09 02:27:49;;;;;;;2.10;1.17;;;-0.20;99.90;;;;;;4146626;28;20280;-61
2024/01/09 02:29:51;;;;;;;2.20;0.90;;;-0.20;99.90;;;;;;4147311;28;20329;-65
2024/01/09 02:31:53;;;;;;;1.80;1.07;;;-0.20;99.90;;;;;;4146125;28;20259;-62
2024/01/09 02:33:55;;;;;;;2.43;0.80;;;-0.20;99.90;;;;;;4146284;28;20263;-60
2024/01/09 02:35:56;;;;;;;1.43;0.93;;;-0.20;99.90;;;;;;4146361;28;20267;-60
2024/01/09 02:37:58;;;;;;;1.13;0.80;;;-0.20;99.90;;;;;;4145830;28;20272;-60
2024/01/09 02:40:03;;;;;;;1.40;1.10;;;-0.30;99.90;;;;;;4146323;28;20330;-62
2024/01/09 02:42:04;;;;;;;3.93;1.43;;;-0.30;99.90;;;;;;4145444;28;20272;-62
2024/01/09 02:44:05;;;;;;;2.07;1.00;;;-0.30;99.90;;;;;;4146774;28;20271;-61
2024/01/09 02:46:07;;;;;;;3.80;1.23;;;-0.30;99.90;;;;;;4145394;28;20295;-64
2024/01/09 02:48:08;;;;;;;2.07;0.90;;;-0.30;99.90;;;;;;4147139;28;20259;-60
2024/01/09 02:50:09;;;;;;;2.30;1.37;;;-0.30;99.90;;;;;;4145778;28;20267;-64
2024/01/09 02:52:10;;;;;;;2.13;1.40;;;-0.30;99.90;;;;;;4147169;28;20814;-61
2024/01/09 02:54:12;;;;;;;2.57;1.43;;;-0.30;99.90;;;;;;4145746;28;20744;-62
2024/01/09 02:56:13;;;;;;;5.87;1.67;;;-0.30;99.90;;;;;;4146719;28;20275;-61
2024/01/09 02:58:14;;;;;;;4.17;1.50;;;-0.30;99.90;;;;;;4145753;28;20334;-64
2024/01/09 03:00:16;;;;;;;5.13;1.27;;;-0.30;99.90;;;;;;4146849;28;21580;-65
2024/01/09 03:02:17;;;;;;;5.10;1.63;;;-0.30;99.90;;;;;;4145355;28;20667;-64
2024/01/09 03:04:18;;;;;;;2.47;1.60;;;-0.40;99.90;;;;;;4144882;28;21338;-65
2024/01/09 03:06:19;;;;;;;3.83;1.70;;;-0.40;99.90;;;;;;4146751;28;20291;-65
2024/01/09 03:08:20;;;;;;;3.77;1.87;;;-0.40;99.90;;;;;;4145877;28;20389;-63
2024/01/09 03:10:22;;;;;;;5.10;2.00;;;-0.40;99.90;;;;;;4146470;28;20326;-63
2024/01/09 03:12:23;;;;;;;3.97;1.47;;;-0.40;99.90;;;;;;4145433;28;20263;-64
2024/01/09 03:14:24;;;;;;;2.87;1.57;;;-0.50;99.90;;;;;;4146521;28;20775;-62
2024/01/09 03:16:25;;;;;;;2.27;1.37;;;-0.50;99.90;;;;;;4145285;28;20279;-63
2024/01/09 03:18:27;;;;;;;2.53;1.53;;;-0.50;99.90;;;;;;4146322;28;20287;-64
2024/01/09 03:20:28;;;;;;;4.63;1.77;;;-0.60;99.90;;;;;;4145232;28;20341;-61
2024/01/09 03:22:29;;;;;;;4.83;1.50;;;-0.60;99.90;;;;;;4146450;28;20271;-61
2024/01/09 03:24:30;;;;;;;6.43;1.83;;;-0.60;99.90;;;;;;4145023;28;20740;-63
2024/01/09 03:26:32;;;;;;;2.73;1.40;;;-0.60;99.90;;;;;;4144801;28;20280;-65
2024/01/09 03:28:36;;;;;;;4.53;1.50;;;-0.60;99.90;;;;;;4145546;28;20271;-62
2024/01/09 03:30:37;;;;;;;4.70;1.60;;;-0.60;99.90;;;;;;4146346;28;20303;-65
2024/01/09 03:32:38;;;;;;;2.80;1.13;;;-0.60;99.90;;;;;;4145521;28;20256;-63
2024/01/09 03:34:40;;;;;;;4.17;1.50;;;-0.60;99.90;;;;;;4144524;28;20279;-66
2024/01/09 03:36:44;;;;;;;2.87;1.17;;;-0.60;99.90;;;;;;4145572;28;20809;-62
2024/01/09 03:38:45;;;;;;;3.13;1.70;;;-0.60;99.90;;;;;;4145118;28;20651;-63
2024/01/09 03:40:47;;;;;;;4.50;1.30;;;-0.60;99.90;;;;;;4145566;28;20668;-60
2024/01/09 03:42:48;;;;;;;2.80;1.40;;;-0.60;99.90;;;;;;4144239;28;20339;-64
2024/01/09 03:44:49;;;;;;;3.57;1.40;;;-0.60;99.90;;;;;;4145308;28;20271;-60
2024/01/09 03:46:50;;;;;;;2.07;0.90;;;-0.60;99.90;;;;;;4144328;28;20271;-65
2024/01/09 03:48:52;;;;;;;3.87;1.50;;;-0.70;99.90;;;;;;4145860;28;20325;-64
2024/01/09 03:50:53;;;;;;;1.70;0.93;;;-0.60;99.90;;;;;;4143146;28;20354;-61
2024/01/09 03:52:55;;;;;;;2.70;1.07;;;-0.70;99.90;;;;;;4146111;28;20673;-62
2024/01/09 03:54:56;;;;;;;1.80;1.03;;;-0.70;99.90;;;;;;4144763;28;20742;-62
2024/01/09 03:56:57;;;;;;;2.27;1.00;;;-0.70;99.90;;;;;;4145397;28;20487;-66
2024/01/09 03:58:58;;;;;;;2.47;0.97;;;-0.70;99.90;;;;;;4144950;28;20263;-65
2024/01/09 04:00:59;;;;;;;2.70;1.57;;;-0.70;99.90;;;;;;4144419;28;20271;-65
2024/01/09 04:03:02;;;;;;;1.93;1.20;;;-0.70;99.90;;;;;;4144626;28;20279;-63
2024/01/09 04:05:04;;;;;;;2.83;1.93;;;-0.80;99.90;;;;;;4145345;28;20267;-63
2024/01/09 04:07:05;;;;;;;2.47;1.40;;;-0.80;99.90;;;;;;4144551;28;20263;-63
2024/01/09 04:09:06;;;;;;;8.90;4.50;;;-0.80;99.90;;;;;;4144991;28;20317;-61
2024/01/09 04:11:07;;;;;;;3.43;2.13;;;-0.80;99.90;;;;;;4145158;28;20284;-61
2024/01/09 04:13:09;;;;;;;2.87;1.60;;;-0.80;99.90;;;;;;4144359;28;20338;-65
2024/01/09 04:15:10;;;;;;;2.80;1.87;;;-0.80;99.90;;;;;;4145200;28;20310;-65
2024/01/09 04:17:11;;;;;;;4.27;1.97;;;-0.90;99.90;;;;;;4144281;28;20272;-66
2024/01/09 04:19:12;;;;;;;2.07;1.30;;;-0.90;99.90;;;;;;4145480;28;20306;-64
2024/01/09 04:21:14;;;;;;;2.70;2.07;;;-0.90;99.90;;;;;;4144049;28;20287;-63
2024/01/09 04:23:15;;;;;;;4.30;2.00;;;-0.90;99.90;;;;;;4145849;28;20275;-65
2024/01/09 04:25:16;;;;;;;6.57;2.50;;;-1.00;99.90;;;;;;4143912;28;20299;-61
2024/01/09 04:27:17;;;;;;;3.93;2.13;;;-1.00;99.90;;;;;;4143726;28;20280;-66
2024/01/09 04:29:18;;;;;;;3.80;1.93;;;-1.00;99.90;;;;;;4144734;28;20272;-63
2024/01/09 04:31:23;;;;;;;3.33;1.97;;;-1.00;99.90;;;;;;4145002;28;20279;-65
2024/01/09 04:33:24;;;;;;;4.20;2.17;;;-1.10;99.90;;;;;;4144067;28;20317;-65
2024/01/09 04:35:25;;;;;;;3.90;1.83;;;-1.10;99.90;;;;;;4143772;28;20291;-66
2024/01/09 04:37:26;;;;;;;3.70;2.07;;;-1.10;99.90;;;;;;4143999;28;20349;-65
2024/01/09 04:39:28;;;;;;;3.00;1.50;;;-1.20;99.90;;;;;;4143152;28;20318;-67
2024/01/09 04:41:29;;;;;;;2.13;1.60;;;-1.30;99.90;;;;;;4144172;28;20276;-62
2024/01/09 04:43:30;;;;;;;3.20;1.60;;;-1.30;99.90;;;;;;4143965;28;20671;-66
2024/01/09 04:45:31;;;;;;;3.80;1.67;;;-1.30;99.90;;;;;;4144599;28;20368;-63
2024/01/09 04:47:32;;;;;;;4.07;1.93;;;-1.40;99.90;;;;;;4142336;28;20321;-64
2024/01/09 04:49:33;;;;;;;4.50;2.00;;;-1.40;99.90;;;;;;4144703;28;20330;-62
2024/01/09 04:51:36;;;;;;;5.23;2.60;;;-1.40;99.90;;;;;;4143281;28;20334;-65
2024/01/09 04:53:37;;;;;;;3.23;1.70;;;-1.40;99.90;;;;;;4144804;28;20283;-64
2024/01/09 04:55:38;;;;;;;5.40;2.50;;;-1.40;99.90;;;;;;4143030;28;20330;-65
2024/01/09 04:57:39;;;;;;;1.93;1.33;;;-1.40;99.90;;;;;;4145025;28;20364;-65
2024/01/09 04:59:42;;;;;;;4.97;2.17;;;-1.50;99.90;;;;;;4143947;28;20338;-62
2024/01/09 05:01:49;;;;;;;4.17;2.17;;;-1.40;99.90;;;;;;4144185;28;20321;-65
2024/01/09 05:03:50;;;;;;;4.23;2.40;;;-1.40;99.90;;;;;;4143631;28;20295;-64
2024/01/09 05:05:51;;;;;;;5.70;2.07;;;-1.50;99.90;;;;;;4143967;28;20643;-60
2024/01/09 05:07:52;;;;;;;5.60;2.37;;;-1.50;99.90;;;;;;4143528;28;20341;-60
2024/01/09 05:09:53;;;;;;;5.23;1.97;;;-1.50;99.90;;;;;;4142873;28;20275;-64
2024/01/09 05:11:55;;;;;;;6.03;2.30;;;-1.50;99.90;;;;;;4142992;28;20724;-64
2024/01/09 05:13:56;;;;;;;4.07;2.10;;;-1.50;99.90;;;;;;4143680;28;20302;-66
2024/01/09 05:15:57;;;;;;;2.77;1.90;;;-1.50;99.90;;;;;;4144232;28;20357;-67
2024/01/09 05:17:58;;;;;;;6.13;2.90;;;-1.50;99.90;;;;;;4151508;28;20279;-59
2024/01/09 05:19:59;;;;;;;4.47;2.37;;;-1.50;99.90;;;;;;4160394;28;20705;-66
2024/01/09 05:22:01;;;;;;;5.90;2.87;;;-1.50;99.90;;;;;;4159389;28;20275;-66
2024/01/09 05:24:02;;;;;;;9.30;4.47;;;-1.50;99.90;;;;;;4160661;28;20658;-61
2024/01/09 05:26:03;;;;;;;6.30;3.03;;;-1.50;99.90;;;;;;4159172;28;20864;-65
2024/01/09 05:28:05;;;;;;;4.60;2.10;;;-1.60;99.90;;;;;;4160584;28;20290;-61
2024/01/09 05:30:09;;;;;;;6.60;3.00;;;-1.60;99.90;;;;;;4143794;28;20271;-62
2024/01/09 05:32:10;;;;;;;5.23;3.07;;;-1.60;99.90;;;;;;4144195;28;20309;-66
2024/01/09 05:34:11;;;;;;;6.47;2.33;;;-1.60;99.90;;;;;;4142619;28;20279;-62
2024/01/09 05:36:18;;;;;;;6.30;2.97;;;-1.60;99.90;;;;;;4143445;28;20279;-61
2024/01/09 05:38:19;;;;;;;5.43;2.50;;;-1.60;99.90;;;;;;4142685;28;20752;-64
2024/01/09 05:40:20;;;;;;;4.63;2.57;;;-1.60;99.90;;;;;;4144132;28;20679;-66
2024/01/09 05:42:21;;;;;;;7.03;2.77;;;-1.70;99.90;;;;;;4142799;28;20272;-62
2024/01/09 05:44:23;;;;;;;16.20;6.27;;;-1.70;99.90;;;;;;4143916;28;20264;-65
2024/01/09 05:46:24;;;;;;;13.03;5.20;;;-1.80;99.90;;;;;;4143464;28;20283;-65
2024/01/09 05:48:25;;;;;;;8.93;3.63;;;-1.80;99.90;;;;;;4142583;28;20271;-61
2024/01/09 05:50:26;;;;;;;9.10;4.27;;;-1.90;99.90;;;;;;4146626;28;20345;-68
2024/01/09 05:52:27;;;;;;;10.63;3.83;;;-1.90;99.90;;;;;;4146642;28;20679;-65
2024/01/09 05:54:29;;;;;;;9.80;4.30;;;-2.00;99.90;;;;;;4146834;28;20279;-64
2024/01/09 05:56:30;;;;;;;5.77;3.70;;;-2.00;99.90;;;;;;4145072;28;20279;-66
2024/01/09 05:58:31;;;;;;;10.17;3.60;;;-2.10;99.90;;;;;;4147334;28;20267;-68
2024/01/09 06:00:33;;;;;;;7.50;3.17;;;-2.10;99.90;;;;;;4146518;28;20313;-60
2024/01/09 06:02:34;;;;;;;8.73;3.80;;;-2.10;99.90;;;;;;4147308;28;20271;-60
2024/01/09 06:04:35;;;;;;;5.47;3.20;;;-2.20;99.90;;;;;;4146171;28;20267;-61
2024/01/09 06:06:36;;;;;;;7.13;4.00;;;-2.30;99.90;;;;;;4147191;28;20291;-64
2024/01/09 06:08:37;;;;;;;11.03;5.20;;;-2.20;99.90;;;;;;4146111;28;20271;-59
2024/01/09 06:10:39;;;;;;;11.80;4.43;;;-2.30;99.90;;;;;;4147385;28;20279;-67
2024/01/09 06:12:40;;;;;;;10.07;4.13;;;-2.30;99.90;;;;;;4146015;28;20298;-59
2024/01/09 06:14:41;;;;;;;10.83;5.50;;;-2.40;99.90;;;;;;4146771;28;20317;-60
2024/01/09 06:16:42;;;;;;;13.37;6.50;;;-2.40;99.90;;;;;;4146339;28;20752;-64
2024/01/09 06:18:43;;;;;;;8.43;5.90;;;-2.40;99.90;;;;;;4146276;28;20342;-60
2024/01/09 06:20:44;;;;;;;10.93;6.30;;;-2.50;99.90;;;;;;4146814;28;20271;-66
2024/01/09 06:22:46;;;;;;;10.87;5.87;;;-2.50;99.90;;;;;;4145997;28;20279;-68
2024/01/09 06:24:47;;;;;;;16.37;5.53;;;-2.50;99.90;;;;;;4146827;28;20390;-60
2024/01/09 06:26:48;;;;;;;12.87;5.27;;;-2.50;99.90;;;;;;4145236;28;20345;-59
2024/01/09 06:28:49;;;;;;;9.90;4.63;;;-2.50;99.90;;;;;;4147038;28;20255;-67
2024/01/09 06:30:50;;;;;;;9.07;4.17;;;-2.50;99.90;;;;;;4144850;28;20267;-67
2024/01/09 06:32:51;;;;;;;7.93;4.07;;;-2.40;99.90;;;;;;4147031;28;20263;-62
2024/01/09 06:34:53;;;;;;;8.13;4.10;;;-2.40;99.90;;;;;;4145586;28;20251;-64
2024/01/09 06:36:54;;;;;;;8.63;4.17;;;-2.30;99.90;;;;;;4146719;28;20267;-61
2024/01/09 06:38:55;;;;;;;12.53;4.83;;;-2.10;99.90;;;;;;4145818;28;20417;-61
2024/01/09 06:40:56;;;;;;;9.53;5.43;;;-1.80;99.90;;;;;;4146522;28;20272;-64
2024/01/09 06:42:57;;;;;;;15.63;7.30;;;-1.60;99.90;;;;;;4145987;28;20326;-60
2024/01/09 06:44:59;;;;;;;13.97;6.97;;;-1.30;99.90;;;;;;4146182;28;20279;-59
2024/01/09 06:47:00;;;;;;;14.83;7.20;;;-1.00;99.90;;;;;;4145863;28;20335;-62
2024/01/09 06:49:01;;;;;;;20.37;8.43;;;-0.80;99.90;;;;;;4145873;28;20271;-65
2024/01/09 06:51:03;;;;;;;18.50;6.90;;;-0.50;99.90;;;;;;4145987;28;20304;-68
2024/01/09 06:53:04;;;;;;;15.70;7.67;;;-0.40;99.90;;;;;;4145159;28;20260;-65
2024/01/09 06:55:06;;;;;;;28.00;9.30;;;-0.10;99.90;;;;;;4146486;28;20275;-62
2024/01/09 06:57:07;;;;;;;16.33;7.10;;;0.20;99.90;;;;;;4145057;28;20279;-62
2024/01/09 06:59:08;;;;;;;24.37;7.97;;;0.30;99.90;;;;;;4146766;28;20279;-62
2024/01/09 07:01:09;;;;;;;13.07;5.73;;;0.50;99.90;;;;;;4145386;28;20763;-65
2024/01/09 07:03:11;;;;;;;16.03;6.20;;;0.70;99.90;;;;;;4146626;28;20359;-61
2024/01/09 07:05:12;;;;;;;18.50;7.40;;;0.70;99.90;;;;;;4144997;28;20747;-60
2024/01/09 07:07:14;;;;;;;28.50;7.63;;;0.70;99.90;;;;;;4146143;28;20291;-60
2024/01/09 07:09:15;;;;;;;24.60;7.40;;;0.80;99.90;;;;;;4145361;28;20284;-65
2024/01/09 07:11:16;;;;;;;16.07;5.83;;;1.00;99.90;;;;;;4144649;28;20858;-63
2024/01/09 07:13:17;;;;;;;15.83;5.87;;;1.30;99.90;;;;;;4145462;28;20756;-65
2024/01/09 07:15:18;;;;;;;7.73;3.37;;;1.40;99.90;;;;;;4145747;28;20671;-67
2024/01/09 07:17:21;;;;;;;11.13;4.07;;;1.50;99.90;;;;;;4145555;28;20267;-64
2024/01/09 07:19:23;;;;;;;5.63;2.70;;;1.30;99.90;;;;;;4145462;28;20267;-62
2024/01/09 07:21:24;;;;;;;6.00;2.10;;;1.10;98.80;;;;;;4145874;28;20259;-62
2024/01/09 07:23:26;;;;;;;11.40;5.20;;;1.10;96.60;;;;;;4143724;28;20260;-65
2024/01/09 07:25:27;;;;;;;19.00;5.90;;;1.20;99.90;;;;;;4146059;28;20760;-68
2024/01/09 07:27:28;;;;;;;10.27;5.30;;;1.40;99.90;;;;;;4144744;28;20311;-65
2024/01/09 07:29:29;;;;;;;13.60;4.90;;;1.70;99.90;;;;;;4142211;28;20264;-65
2024/01/09 07:31:30;;;;;;;7.23;3.07;;;1.90;99.90;;;;;;4139486;28;20030;-63
2024/01/09 07:33:32;;;;;;;9.17;4.23;;;2.20;99.90;;;;;;4138242;28;20034;-65
2024/01/09 07:35:37;;;;;;;5.60;2.10;;;2.50;99.90;;;;;;4142093;28;20084;-62
2024/01/09 07:37:38;;;;;;;8.53;3.70;;;2.40;98.80;;;;;;4140831;28;20132;-62
2024/01/09 07:39:40;;;;;;;6.93;3.50;;;2.70;99.90;;;;;;4139814;28;20034;-66
2024/01/09 07:41:42;;;;;;;7.40;3.57;;;2.50;98.80;;;;;;4145136;28;20038;-68
2024/01/09 07:43:45;;;;;;;4.37;2.20;;;2.40;98.50;;;;;;4144798;28;20456;-67
2024/01/09 07:45:47;;;;;;;6.20;3.10;;;2.40;96.70;;;;;;4145713;28;20061;-69
2024/01/09 07:47:48;;;;;;;9.30;3.87;;;2.50;98.40;;;;;;4151407;28;20099;-66
2024/01/09 07:49:49;;;;;;;11.07;3.50;;;2.60;96.70;;;;;;4155141;28;21534;-67
2024/01/09 07:51:51;;;;;;;7.97;3.40;;;2.70;97.80;;;;;;4153295;28;20122;-65
2024/01/09 07:53:52;;;;;;;11.03;3.63;;;2.40;95.50;;;;;;4160650;28;20087;-66
2024/01/09 07:55:53;;;;;;;5.63;2.90;;;2.50;96.40;;;;;;4145058;28;20042;-62
2024/01/09 07:57:54;;;;;;;9.97;2.20;;;2.50;95.80;;;;;;4144310;28;20069;-63
2024/01/09 07:59:55;;;;;;;5.77;2.60;;;2.20;94.50;;;;;;4145833;28;20080;-64
2024/01/09 08:01:56;;;;;;;6.67;2.50;;;2.20;95.30;;;;;;4143769;28;20406;-67
2024/01/09 08:03:58;;;;;;;3.53;2.20;;;2.20;95.00;;;;;;4129500;28;20069;-65
2024/01/09 08:05:59;;;;;;;4.90;1.83;;;2.10;93.60;;;;;;4142459;28;20111;-60
2024/01/09 08:08:00;;;;;;;3.63;2.00;;;2.00;93.40;;;;;;4145469;28;20032;-67
2024/01/09 08:10:02;;;;;;;5.23;2.20;;;1.90;93.60;;;;;;4144487;28;20017;-66
2024/01/09 08:12:03;;;;;;;4.00;2.13;;;1.60;93.40;;;;;;4143432;28;20037;-67
2024/01/09 08:14:04;;;;;;;6.53;3.30;;;1.60;94.60;;;;;;4144555;28;20073;-64
2024/01/09 08:16:08;;;;;;;7.47;2.60;;;1.40;93.90;;;;;;4145033;28;20410;-67
2024/01/09 08:18:09;;;;;;;5.50;2.40;;;1.30;93.80;;;;;;4143777;28;20255;-65
2024/01/09 08:20:10;;;;;;;3.33;1.50;;;1.30;93.10;;;;;;4144609;28;20256;-67
2024/01/09 08:22:12;;;;;;;4.43;1.67;;;1.30;92.20;;;;;;4144646;28;20279;-65
2024/01/09 08:24:18;;;;;;;2.97;1.33;;;1.30;92.40;;;;;;4144341;28;20255;-67
2024/01/09 08:26:19;;;;;;;4.00;1.93;;;1.20;92.60;;;;;;4144395;28;20303;-61
2024/01/09 08:28:20;;;;;;;7.80;2.53;;;1.30;92.00;;;;;;4143781;28;20283;-63
2024/01/09 08:30:21;;;;;;;6.43;2.27;;;1.40;91.50;;;;;;4144748;28;20345;-64
2024/01/09 08:32:22;;;;;;;5.43;1.90;;;1.30;92.00;;;;;;4143809;28;20322;-65
2024/01/09 08:34:24;;;;;;;3.33;1.40;;;1.40;91.40;;;;;;4145241;28;20295;-61
2024/01/09 08:36:25;;;;;;;2.40;1.33;;;1.40;90.10;;;;;;4151410;28;20641;-60
2024/01/09 08:38:26;;;;;;;3.63;1.67;;;1.60;90.90;;;;;;4161422;28;20267;-60
2024/01/09 08:40:27;;;;;;;2.63;1.07;;;1.70;90.50;;;;;;4147271;28;20271;-66
2024/01/09 08:42:28;;;;;;;2.50;1.23;;;1.70;88.40;;;;;;4146060;28;20329;-64
2024/01/09 08:44:30;;;;;;;2.60;1.33;;;1.40;87.10;;;;;;4143535;28;20337;-64
2024/01/09 08:46:31;;;;;;;2.97;0.90;;;1.30;87.70;;;;;;4157804;28;20345;-66
2024/01/09 08:48:32;;;;;;;1.90;1.13;;;1.10;87.00;;;;;;4160086;28;20324;-64
2024/01/09 08:50:33;;;;;;;3.43;1.03;;;0.90;87.90;;;;;;4151614;28;20276;-63
2024/01/09 08:52:37;;;;;;;2.60;1.23;;;0.90;89.60;;;;;;4144314;28;20264;-60
2024/01/09 08:54:38;;;;;;;4.23;1.57;;;0.90;89.90;;;;;;4144053;28;20325;-58
2024/01/09 08:56:39;;;;;;;4.17;1.83;;;1.00;89.70;;;;;;4144085;28;20267;-60
2024/01/09 08:58:41;;;;;;;3.20;1.47;;;1.00;89.30;;;;;;4143781;28;20275;-61
2024/01/09 09:00:42;;;;;;;3.57;1.30;;;1.10;89.90;;;;;;4144319;28;20995;-65
2024/01/09 09:02:43;;;;;;;5.27;1.70;;;1.10;89.40;;;;;;4143123;28;20263;-65
2024/01/09 09:04:44;;;;;;;5.00;1.33;;;1.00;89.00;;;;;;4144243;28;20283;-61
2024/01/09 09:06:46;;;;;;;4.87;1.67;;;1.00;88.50;;;;;;4155865;28;20286;-64
2024/01/09 09:08:47;;;;;;;5.60;1.70;;;0.90;88.90;;;;;;4161122;28;20613;-65
2024/01/09 09:10:48;;;;;;;4.50;1.90;;;1.00;88.70;;;;;;4149764;28;20275;-66
2024/01/09 09:12:49;;;;;;;4.03;1.73;;;1.00;89.00;;;;;;4144393;28;20252;-67
2024/01/09 09:14:50;;;;;;;3.83;1.70;;;1.10;86.60;;;;;;4142925;28;20655;-64
2024/01/09 09:16:52;;;;;;;2.47;1.20;;;1.00;87.30;;;;;;4143602;28;20345;-66
2024/01/09 09:18:53;;;;;;;2.60;1.03;;;1.20;87.80;;;;;;4142714;28;20337;-62
2024/01/09 09:20:54;;;;;;;3.17;1.20;;;1.10;86.80;;;;;;4144147;28;20290;-59
2024/01/09 09:22:55;;;;;;;3.47;1.10;;;1.10;86.00;;;;;;4143412;28;20338;-62
2024/01/09 09:24:56;;;;;;;2.83;1.33;;;1.10;86.60;;;;;;4142381;28;20256;-68
2024/01/09 09:26:57;;;;;;;3.40;1.03;;;1.10;87.20;;;;;;4143180;28;20287;-63
2024/01/09 09:28:59;;;;;;;1.97;1.00;;;1.00;86.60;;;;;;4143509;28;20338;-66
2024/01/09 09:31:00;;;;;;;3.87;1.43;;;0.90;86.30;;;;;;4144762;28;20280;-62
2024/01/09 09:33:01;;;;;;;1.37;1.10;;;1.00;87.40;;;;;;4142815;28;20302;-65
2024/01/09 09:35:03;;;;;;;3.00;1.27;;;1.00;86.70;;;;;;4143577;28;20275;-60
2024/01/09 09:37:04;;;;;;;2.93;1.70;;;1.10;87.60;;;;;;4142851;28;20651;-63
2024/01/09 09:39:06;;;;;;;3.70;1.67;;;1.10;87.80;;;;;;4144176;28;20299;-59
2024/01/09 09:41:07;;;;;;;3.77;1.70;;;1.10;88.30;;;;;;4142848;28;20271;-61
2024/01/09 09:43:14;;;;;;;2.73;1.47;;;1.20;88.40;;;;;;4143619;28;20337;-60
2024/01/09 09:45:19;;;;;;;5.70;1.70;;;1.20;88.40;;;;;;4142366;28;20271;-62
2024/01/09 09:47:23;;;;;;;3.37;1.40;;;1.20;88.50;;;;;;4143954;28;20307;-60
2024/01/09 09:49:24;;;;;;;3.80;1.30;;;1.30;88.80;;;;;;4143233;28;20333;-61
2024/01/09 09:51:26;;;;;;;2.63;1.07;;;1.20;89.20;;;;;;4143817;28;20698;-67
2024/01/09 09:53:30;;;;;;;2.00;1.07;;;1.30;90.00;;;;;;4143252;28;20735;-61
2024/01/09 09:55:31;;;;;;;3.53;1.93;;;1.20;90.50;;;;;;4147105;28;20279;-64
2024/01/09 09:57:32;;;;;;;3.70;1.80;;;1.20;90.80;;;;;;4142454;28;20333;-61
2024/01/09 09:59:34;;;;;;;4.33;1.80;;;1.30;90.90;;;;;;4142880;28;20271;-57
2024/01/09 10:01:35;;;;;;;2.33;1.20;;;1.30;91.30;;;;;;4147179;28;20270;-62
2024/01/09 10:03:48;;;;;;;2.03;1.43;;;1.30;91.70;;;;;;4143181;28;20267;-62
2024/01/09 10:05:50;;;;;;;7.30;1.50;;;1.30;92.40;;;;;;4143378;28;20267;-66
2024/01/09 10:07:54;;;;;;;1.83;1.40;;;1.40;93.50;;;;;;4142616;28;20333;-62
2024/01/09 10:09:59;;;;;;;2.90;1.70;;;1.40;93.70;;;;;;4143972;28;20846;-63
2024/01/09 10:12:00;;;;;;;4.67;1.80;;;1.40;96.00;;;;;;4142697;28;20275;-65
2024/01/09 10:14:02;;;;;;;2.77;1.60;;;1.40;95.80;;;;;;4143419;28;20275;-61
2024/01/09 10:16:03;;;;;;;1.63;1.40;;;1.40;96.10;;;;;;4141896;28;20325;-64
2024/01/09 10:18:05;;;;;;;3.20;1.90;;;1.40;96.60;;;;;;4143642;28;20334;-63
2024/01/09 10:20:09;;;;;;;4.27;2.00;;;1.40;97.50;;;;;;4142488;28;20822;-58
2024/01/09 10:22:10;;;;;;;3.30;1.60;;;1.40;97.90;;;;;;4127847;28;20272;-67
2024/01/09 10:24:11;;;;;;;2.93;1.93;;;1.40;98.30;;;;;;4129760;28;20613;-61
2024/01/09 10:26:12;;;;;;;3.00;1.63;;;1.30;98.40;;;;;;4149202;28;20687;-60
2024/01/09 10:28:19;;;;;;;2.30;1.57;;;1.40;97.60;;;;;;4142577;28;20322;-64
2024/01/09 10:30:22;;;;;;;2.23;1.53;;;1.40;96.70;;;;;;4143870;28;20276;-63
2024/01/09 10:32:24;;;;;;;2.37;0.70;;;1.50;96.70;;;;;;4142511;28;20279;-66
2024/01/09 10:34:26;;;;;;;0.97;0.50;;;1.60;94.40;;;;;;4143242;28;20317;-63
2024/01/09 10:36:28;;;;;;;0.60;0.60;;;1.50;90.20;;;;;;4145123;28;20769;-60